sensor_id;sensor_type;location;lat;lon;timestamp;pressure;altitude;pressure_sealevel;temperature;humidity
55801;BME280;41730;51.960;20.158;2024-03-07T00:00:51;101138.85;;;4.15;74.16
55801;BME280;41730;51.960;20.158;2024-03-07T00:03:25;101136.04;;;4.16;74.36
55801;BME280;41730;51.960;20.158;2024-03-07T00:05:57;101133.33;;;4.22;73.69
55801;BME280;41730;51.960;20.158;2024-03-07T00:08:29;101139.31;;;4.20;73.80
55801;BME280;41730;51.960;20.158;2024-03-07T00:11:01;101134.67;;;4.23;74.13
55801;BME280;41730;51.960;20.158;2024-03-07T00:13:32;101130.27;;;4.25;73.94
55801;BME280;41730;51.960;20.158;2024-03-07T00:16:06;101128.77;;;4.40;73.65
55801;BME280;41730;51.960;20.158;2024-03-07T00:18:39;101129.16;;;4.35;73.40
55801;BME280;41730;51.960;20.158;2024-03-07T00:21:11;101136.00;;;4.25;73.82
55801;BME280;41730;51.960;20.158;2024-03-07T00:23:42;101127.77;;;4.39;73.68
55801;BME280;41730;51.960;20.158;2024-03-07T00:26:15;101125.04;;;4.46;73.20
55801;BME280;41730;51.960;20.158;2024-03-07T00:28:47;101127.16;;;4.41;73.40
55801;BME280;41730;51.960;20.158;2024-03-07T00:31:20;101121.11;;;4.36;73.56
55801;BME280;41730;51.960;20.158;2024-03-07T00:33:52;101127.65;;;4.29;74.03
55801;BME280;41730;51.960;20.158;2024-03-07T00:36:42;101126.52;;;4.19;74.47
55801;BME280;41730;51.960;20.158;2024-03-07T00:39:14;101126.33;;;4.32;74.00
55801;BME280;41730;51.960;20.158;2024-03-07T00:41:45;101122.23;;;4.38;73.77
55801;BME280;41730;51.960;20.158;2024-03-07T00:44:17;101114.70;;;4.52;73.59
55801;BME280;41730;51.960;20.158;2024-03-07T00:46:50;101116.29;;;4.64;72.84
55801;BME280;41730;51.960;20.158;2024-03-07T00:49:22;101116.58;;;4.53;72.89
55801;BME280;41730;51.960;20.158;2024-03-07T00:51:53;101116.20;;;4.45;73.25
55801;BME280;41730;51.960;20.158;2024-03-07T00:54:25;101116.38;;;4.41;73.33
55801;BME280;41730;51.960;20.158;2024-03-07T00:56:56;101118.64;;;4.41;73.45
55801;BME280;41730;51.960;20.158;2024-03-07T00:59:28;101116.61;;;4.44;73.40
55801;BME280;41730;51.960;20.158;2024-03-07T01:02:00;101119.21;;;4.44;73.40
55801;BME280;41730;51.960;20.158;2024-03-07T01:04:32;101121.98;;;4.49;73.47
55801;BME280;41730;51.960;20.158;2024-03-07T01:07:04;101118.96;;;4.54;72.99
55801;BME280;41730;51.960;20.158;2024-03-07T01:09:36;101122.01;;;4.40;73.08
55801;BME280;41730;51.960;20.158;2024-03-07T01:12:08;101125.04;;;4.34;73.11
55801;BME280;41730;51.960;20.158;2024-03-07T01:14:41;101118.86;;;4.44;73.03
55801;BME280;41730;51.960;20.158;2024-03-07T01:17:13;101116.95;;;4.48;71.99
55801;BME280;41730;51.960;20.158;2024-03-07T01:19:45;101117.75;;;4.34;72.12
55801;BME280;41730;51.960;20.158;2024-03-07T01:22:16;101121.86;;;4.23;71.86
55801;BME280;41730;51.960;20.158;2024-03-07T01:24:49;101122.64;;;4.16;71.76
55801;BME280;41730;51.960;20.158;2024-03-07T01:27:21;101120.88;;;4.37;71.09
55801;BME280;41730;51.960;20.158;2024-03-07T01:29:54;101117.96;;;4.45;70.46
55801;BME280;41730;51.960;20.158;2024-03-07T01:32:27;101114.48;;;4.45;70.57
55801;BME280;41730;51.960;20.158;2024-03-07T01:34:59;101118.37;;;4.31;71.03
55801;BME280;41730;51.960;20.158;2024-03-07T01:37:31;101121.79;;;4.24;71.53
55801;BME280;41730;51.960;20.158;2024-03-07T01:40:03;101127.80;;;4.22;71.84
55801;BME280;41730;51.960;20.158;2024-03-07T01:42:35;101129.16;;;4.23;72.06
55801;BME280;41730;51.960;20.158;2024-03-07T01:45:09;101129.22;;;4.21;72.06
55801;BME280;41730;51.960;20.158;2024-03-07T01:47:41;101130.02;;;4.14;72.54
55801;BME280;41730;51.960;20.158;2024-03-07T01:50:13;101131.46;;;4.25;72.62
55801;BME280;41730;51.960;20.158;2024-03-07T01:52:46;101127.49;;;4.33;72.38
55801;BME280;41730;51.960;20.158;2024-03-07T01:55:18;101128.06;;;4.24;72.33
55801;BME280;41730;51.960;20.158;2024-03-07T01:57:51;101130.24;;;4.25;72.46
55801;BME280;41730;51.960;20.158;2024-03-07T02:00:23;101134.34;;;4.31;72.38
55801;BME280;41730;51.960;20.158;2024-03-07T02:02:55;101129.70;;;4.22;72.14
55801;BME280;41730;51.960;20.158;2024-03-07T02:05:28;101133.32;;;4.10;72.70
55801;BME280;41730;51.960;20.158;2024-03-07T02:08:00;101135.35;;;4.02;72.86
55801;BME280;41730;51.960;20.158;2024-03-07T02:10:32;101136.92;;;3.98;72.79
55801;BME280;41730;51.960;20.158;2024-03-07T02:13:06;101138.53;;;4.01;72.74
55801;BME280;41730;51.960;20.158;2024-03-07T02:15:37;101137.52;;;4.14;72.14
55801;BME280;41730;51.960;20.158;2024-03-07T02:18:09;101135.35;;;4.11;72.12
55801;BME280;41730;51.960;20.158;2024-03-07T02:20:45;101136.98;;;4.18;71.86
55801;BME280;41730;51.960;20.158;2024-03-07T02:23:18;101132.65;;;4.22;71.73
55801;BME280;41730;51.960;20.158;2024-03-07T02:25:50;101137.95;;;4.20;71.46
55801;BME280;41730;51.960;20.158;2024-03-07T02:28:22;101136.96;;;4.18;71.65
55801;BME280;41730;51.960;20.158;2024-03-07T02:30:54;101135.44;;;4.34;71.33
55801;BME280;41730;51.960;20.158;2024-03-07T02:33:25;101132.38;;;4.45;70.87
55801;BME280;41730;51.960;20.158;2024-03-07T02:35:57;101133.48;;;4.39;70.75
55801;BME280;41730;51.960;20.158;2024-03-07T02:38:29;101138.23;;;4.21;71.43
55801;BME280;41730;51.960;20.158;2024-03-07T02:41:01;101136.36;;;4.12;71.52
55801;BME280;41730;51.960;20.158;2024-03-07T02:43:33;101141.15;;;4.01;71.87
55801;BME280;41730;51.960;20.158;2024-03-07T02:46:08;101139.88;;;3.98;72.05
55801;BME280;41730;51.960;20.158;2024-03-07T02:48:41;101141.64;;;4.06;71.90
55801;BME280;41730;51.960;20.158;2024-03-07T02:51:14;101139.41;;;3.96;72.16
55801;BME280;41730;51.960;20.158;2024-03-07T02:53:45;101143.27;;;3.95;72.34
55801;BME280;41730;51.960;20.158;2024-03-07T02:56:17;101140.80;;;4.06;71.99
55801;BME280;41730;51.960;20.158;2024-03-07T02:58:49;101138.89;;;4.01;72.00
55801;BME280;41730;51.960;20.158;2024-03-07T03:01:21;101137.35;;;4.00;72.11
55801;BME280;41730;51.960;20.158;2024-03-07T03:03:53;101139.78;;;3.92;72.31
55801;BME280;41730;51.960;20.158;2024-03-07T03:06:24;101138.38;;;3.88;72.45
55801;BME280;41730;51.960;20.158;2024-03-07T03:08:56;101140.98;;;3.92;72.57
55801;BME280;41730;51.960;20.158;2024-03-07T03:11:28;101144.55;;;3.90;72.30
55801;BME280;41730;51.960;20.158;2024-03-07T03:14:00;101142.33;;;3.76;72.58
55801;BME280;41730;51.960;20.158;2024-03-07T03:16:33;101143.71;;;3.67;72.66
55801;BME280;41730;51.960;20.158;2024-03-07T03:19:16;101142.88;;;3.57;72.69
55801;BME280;41730;51.960;20.158;2024-03-07T03:21:48;101140.98;;;3.52;72.85
55801;BME280;41730;51.960;20.158;2024-03-07T03:24:20;101138.60;;;3.55;72.46
55801;BME280;41730;51.960;20.158;2024-03-07T03:26:52;101140.31;;;3.56;72.18
55801;BME280;41730;51.960;20.158;2024-03-07T03:29:24;101139.96;;;3.47;72.02
55801;BME280;41730;51.960;20.158;2024-03-07T03:31:58;101138.86;;;3.40;72.37
55801;BME280;41730;51.960;20.158;2024-03-07T03:34:31;101139.80;;;3.33;72.34
55801;BME280;41730;51.960;20.158;2024-03-07T03:37:03;101142.25;;;3.18;72.74
55801;BME280;41730;51.960;20.158;2024-03-07T03:39:35;101141.50;;;3.29;72.36
55801;BME280;41730;51.960;20.158;2024-03-07T03:42:12;101145.02;;;3.37;72.07
55801;BME280;41730;51.960;20.158;2024-03-07T03:44:44;101144.27;;;3.34;72.02
55801;BME280;41730;51.960;20.158;2024-03-07T03:47:17;101147.55;;;3.30;71.91
55801;BME280;41730;51.960;20.158;2024-03-07T03:49:49;101146.21;;;3.29;71.85
55801;BME280;41730;51.960;20.158;2024-03-07T03:52:21;101145.98;;;3.35;71.58
55801;BME280;41730;51.960;20.158;2024-03-07T03:54:53;101143.84;;;3.18;71.76
55801;BME280;41730;51.960;20.158;2024-03-07T03:57:24;101146.83;;;3.12;72.05
55801;BME280;41730;51.960;20.158;2024-03-07T03:59:56;101146.99;;;3.21;71.77
55801;BME280;41730;51.960;20.158;2024-03-07T04:02:35;101148.49;;;3.18;71.55
55801;BME280;41730;51.960;20.158;2024-03-07T04:05:25;101146.69;;;3.21;71.71
55801;BME280;41730;51.960;20.158;2024-03-07T04:08:29;101148.79;;;3.15;71.63
55801;BME280;41730;51.960;20.158;2024-03-07T04:11:24;101148.86;;;3.23;71.45
55801;BME280;41730;51.960;20.158;2024-03-07T04:13:57;101148.84;;;3.18;71.35
55801;BME280;41730;51.960;20.158;2024-03-07T04:16:29;101148.05;;;3.21;71.14
55801;BME280;41730;51.960;20.158;2024-03-07T04:19:00;101145.77;;;3.31;70.81
55801;BME280;41730;51.960;20.158;2024-03-07T04:21:34;101145.58;;;3.23;70.79
55801;BME280;41730;51.960;20.158;2024-03-07T04:24:05;101147.56;;;3.15;70.80
55801;BME280;41730;51.960;20.158;2024-03-07T04:26:37;101146.59;;;3.18;70.72
55801;BME280;41730;51.960;20.158;2024-03-07T04:29:12;101147.10;;;3.18;70.44
55801;BME280;41730;51.960;20.158;2024-03-07T04:31:44;101153.14;;;3.24;70.38
55801;BME280;41730;51.960;20.158;2024-03-07T04:34:15;101149.25;;;3.31;70.05
55801;BME280;41730;51.960;20.158;2024-03-07T04:36:47;101155.06;;;3.09;70.55
55801;BME280;41730;51.960;20.158;2024-03-07T04:39:19;101155.45;;;2.99;70.78
55801;BME280;41730;51.960;20.158;2024-03-07T04:42:01;101155.69;;;3.07;70.91
55801;BME280;41730;51.960;20.158;2024-03-07T04:44:33;101157.15;;;3.09;70.81
55801;BME280;41730;51.960;20.158;2024-03-07T04:47:06;101159.73;;;3.14;70.75
55801;BME280;41730;51.960;20.158;2024-03-07T04:49:37;101162.44;;;3.26;70.50
55801;BME280;41730;51.960;20.158;2024-03-07T04:52:10;101160.75;;;3.15;70.50
55801;BME280;41730;51.960;20.158;2024-03-07T04:54:42;101158.95;;;3.07;70.81
55801;BME280;41730;51.960;20.158;2024-03-07T04:57:13;101165.14;;;3.04;70.80
55801;BME280;41730;51.960;20.158;2024-03-07T04:59:45;101165.23;;;2.87;71.08
55801;BME280;41730;51.960;20.158;2024-03-07T05:02:18;101167.13;;;2.81;71.39
55801;BME280;41730;51.960;20.158;2024-03-07T05:04:49;101163.94;;;2.94;71.05
55801;BME280;41730;51.960;20.158;2024-03-07T05:07:21;101167.70;;;2.90;71.12
55801;BME280;41730;51.960;20.158;2024-03-07T05:09:53;101166.98;;;3.01;71.06
55801;BME280;41730;51.960;20.158;2024-03-07T05:12:24;101168.59;;;2.94;71.07
55801;BME280;41730;51.960;20.158;2024-03-07T05:14:56;101169.46;;;2.89;71.25
55801;BME280;41730;51.960;20.158;2024-03-07T05:17:28;101165.48;;;2.94;70.97
55801;BME280;41730;51.960;20.158;2024-03-07T05:20:01;101166.79;;;2.87;71.10
55801;BME280;41730;51.960;20.158;2024-03-07T05:22:33;101172.48;;;2.83;71.19
55801;BME280;41730;51.960;20.158;2024-03-07T05:25:06;101174.98;;;2.81;71.17
55801;BME280;41730;51.960;20.158;2024-03-07T05:27:37;101180.67;;;2.71;71.48
55801;BME280;41730;51.960;20.158;2024-03-07T05:30:11;101185.92;;;2.64;71.92
55801;BME280;41730;51.960;20.158;2024-03-07T05:32:43;101186.18;;;2.66;71.93
55801;BME280;41730;51.960;20.158;2024-03-07T05:35:15;101193.56;;;2.74;71.72
55801;BME280;41730;51.960;20.158;2024-03-07T05:37:50;101192.60;;;2.77;71.78
55801;BME280;41730;51.960;20.158;2024-03-07T05:40:23;101191.51;;;2.98;71.63
55801;BME280;41730;51.960;20.158;2024-03-07T05:42:55;101196.08;;;3.20;71.28
55801;BME280;41730;51.960;20.158;2024-03-07T05:45:27;101196.82;;;3.24;71.53
55801;BME280;41730;51.960;20.158;2024-03-07T05:47:58;101194.51;;;3.67;71.25
55801;BME280;41730;51.960;20.158;2024-03-07T05:50:46;101198.98;;;4.17;70.28
55801;BME280;41730;51.960;20.158;2024-03-07T05:53:18;101195.62;;;4.61;69.56
55801;BME280;41730;51.960;20.158;2024-03-07T05:55:50;101190.05;;;5.17;68.60
55801;BME280;41730;51.960;20.158;2024-03-07T05:58:21;101191.59;;;5.53;67.97
55801;BME280;41730;51.960;20.158;2024-03-07T06:00:53;101195.30;;;5.74;67.48
55801;BME280;41730;51.960;20.158;2024-03-07T06:03:25;101194.91;;;5.94;67.13
55801;BME280;41730;51.960;20.158;2024-03-07T06:05:57;101195.56;;;5.98;66.41
55801;BME280;41730;51.960;20.158;2024-03-07T06:08:28;101198.70;;;5.79;67.12
55801;BME280;41730;51.960;20.158;2024-03-07T06:11:06;101198.96;;;6.00;66.83
55801;BME280;41730;51.960;20.158;2024-03-07T06:13:43;101198.19;;;6.24;66.12
55801;BME280;41730;51.960;20.158;2024-03-07T06:16:16;101193.62;;;6.56;65.32
55801;BME280;41730;51.960;20.158;2024-03-07T06:18:48;101194.62;;;6.88;64.52
55801;BME280;41730;51.960;20.158;2024-03-07T06:21:20;101196.65;;;7.19;63.21
55801;BME280;41730;51.960;20.158;2024-03-07T06:23:51;101196.45;;;7.26;62.09
55801;BME280;41730;51.960;20.158;2024-03-07T06:26:33;101199.78;;;7.42;61.73
55801;BME280;41730;51.960;20.158;2024-03-07T06:29:17;101202.52;;;7.50;61.42
55801;BME280;41730;51.960;20.158;2024-03-07T06:31:49;101204.86;;;7.58;61.43
55801;BME280;41730;51.960;20.158;2024-03-07T06:34:23;101207.48;;;7.81;61.00
55801;BME280;41730;51.960;20.158;2024-03-07T06:36:55;101212.05;;;8.11;59.98
55801;BME280;41730;51.960;20.158;2024-03-07T06:39:27;101215.77;;;8.20;59.31
55801;BME280;41730;51.960;20.158;2024-03-07T06:41:59;101221.40;;;8.22;58.93
55801;BME280;41730;51.960;20.158;2024-03-07T06:44:33;101219.83;;;8.10;59.31
55801;BME280;41730;51.960;20.158;2024-03-07T06:47:05;101219.70;;;8.09;58.31
55801;BME280;41730;51.960;20.158;2024-03-07T06:49:36;101218.33;;;8.12;58.46
55801;BME280;41730;51.960;20.158;2024-03-07T06:52:11;101222.56;;;8.29;57.88
55801;BME280;41730;51.960;20.158;2024-03-07T06:54:42;101220.73;;;8.47;58.08
55801;BME280;41730;51.960;20.158;2024-03-07T06:57:16;101221.02;;;8.38;57.75
55801;BME280;41730;51.960;20.158;2024-03-07T06:59:50;101222.10;;;8.19;56.96
55801;BME280;41730;51.960;20.158;2024-03-07T07:02:22;101219.07;;;8.11;56.96
55801;BME280;41730;51.960;20.158;2024-03-07T07:04:54;101223.13;;;8.13;57.55
55801;BME280;41730;51.960;20.158;2024-03-07T07:07:26;101223.45;;;8.29;56.99
55801;BME280;41730;51.960;20.158;2024-03-07T07:09:58;101225.83;;;8.36;57.10
55801;BME280;41730;51.960;20.158;2024-03-07T07:12:31;101228.77;;;8.47;57.11
55801;BME280;41730;51.960;20.158;2024-03-07T07:15:03;101230.75;;;8.46;57.48
55801;BME280;41730;51.960;20.158;2024-03-07T07:17:35;101226.88;;;8.55;57.73
55801;BME280;41730;51.960;20.158;2024-03-07T07:20:09;101227.17;;;8.68;56.69
55801;BME280;41730;51.960;20.158;2024-03-07T07:22:41;101230.41;;;8.55;56.54
55801;BME280;41730;51.960;20.158;2024-03-07T07:25:13;101226.84;;;8.31;57.19
55801;BME280;41730;51.960;20.158;2024-03-07T07:27:47;101222.92;;;8.23;57.80
55801;BME280;41730;51.960;20.158;2024-03-07T07:30:20;101224.34;;;8.35;56.24
55801;BME280;41730;51.960;20.158;2024-03-07T07:32:54;101224.94;;;8.37;54.95
55801;BME280;41730;51.960;20.158;2024-03-07T07:35:26;101223.75;;;8.33;55.15
55801;BME280;41730;51.960;20.158;2024-03-07T07:37:58;101223.41;;;8.30;55.22
55801;BME280;41730;51.960;20.158;2024-03-07T07:40:31;101227.09;;;8.08;55.95
55801;BME280;41730;51.960;20.158;2024-03-07T07:43:04;101225.71;;;8.01;56.01
55801;BME280;41730;51.960;20.158;2024-03-07T07:45:36;101227.94;;;7.93;55.06
55801;BME280;41730;51.960;20.158;2024-03-07T07:48:09;101225.68;;;7.57;55.10
55801;BME280;41730;51.960;20.158;2024-03-07T07:50:42;101224.16;;;7.16;55.93
55801;BME280;41730;51.960;20.158;2024-03-07T07:53:14;101227.77;;;6.97;55.76
55801;BME280;41730;51.960;20.158;2024-03-07T07:55:47;101230.20;;;6.67;55.99
55801;BME280;41730;51.960;20.158;2024-03-07T07:58:19;101232.71;;;6.48;56.76
55801;BME280;41730;51.960;20.158;2024-03-07T08:00:53;101235.06;;;6.35;56.99
55801;BME280;41730;51.960;20.158;2024-03-07T08:03:27;101227.85;;;6.26;56.82
55801;BME280;41730;51.960;20.158;2024-03-07T08:05:59;101229.45;;;6.26;56.54
55801;BME280;41730;51.960;20.158;2024-03-07T08:08:32;101228.55;;;6.19;56.48
55801;BME280;41730;51.960;20.158;2024-03-07T08:11:06;101228.30;;;5.98;57.34
55801;BME280;41730;51.960;20.158;2024-03-07T08:13:38;101225.13;;;5.99;58.01
55801;BME280;41730;51.960;20.158;2024-03-07T08:16:19;101223.63;;;6.20;56.78
55801;BME280;41730;51.960;20.158;2024-03-07T08:18:51;101222.42;;;6.37;56.79
55801;BME280;41730;51.960;20.158;2024-03-07T08:21:30;101214.98;;;6.47;57.09
55801;BME280;41730;51.960;20.158;2024-03-07T08:24:12;101217.20;;;6.51;56.94
55801;BME280;41730;51.960;20.158;2024-03-07T08:26:46;101226.11;;;6.33;57.23
55801;BME280;41730;51.960;20.158;2024-03-07T08:29:21;101214.94;;;6.26;56.87
55801;BME280;41730;51.960;20.158;2024-03-07T08:31:56;101214.41;;;6.16;56.50
55801;BME280;41730;51.960;20.158;2024-03-07T08:34:29;101210.17;;;6.02;56.50
55801;BME280;41730;51.960;20.158;2024-03-07T08:37:02;101210.60;;;5.97;56.41
55801;BME280;41730;51.960;20.158;2024-03-07T08:39:35;101209.79;;;5.73;56.70
55801;BME280;41730;51.960;20.158;2024-03-07T08:42:07;101209.89;;;5.32;57.69
55801;BME280;41730;51.960;20.158;2024-03-07T08:44:38;101209.74;;;5.35;58.02
55801;BME280;41730;51.960;20.158;2024-03-07T08:47:11;101210.44;;;5.47;57.90
55801;BME280;41730;51.960;20.158;2024-03-07T08:49:46;101214.13;;;5.54;57.74
55801;BME280;41730;51.960;20.158;2024-03-07T08:52:21;101208.16;;;5.48;58.52
55801;BME280;41730;51.960;20.158;2024-03-07T08:54:53;101206.85;;;5.46;59.58
55801;BME280;41730;51.960;20.158;2024-03-07T08:57:25;101206.61;;;5.40;59.94
55801;BME280;41730;51.960;20.158;2024-03-07T08:59:57;101206.70;;;5.45;60.20
55801;BME280;41730;51.960;20.158;2024-03-07T09:02:38;101197.92;;;5.59;59.09
55801;BME280;41730;51.960;20.158;2024-03-07T09:05:13;101201.77;;;5.65;58.88
55801;BME280;41730;51.960;20.158;2024-03-07T09:07:47;101198.65;;;5.65;58.98
55801;BME280;41730;51.960;20.158;2024-03-07T09:10:22;101195.85;;;5.74;59.06
55801;BME280;41730;51.960;20.158;2024-03-07T09:13:05;101199.37;;;5.76;58.46
55801;BME280;41730;51.960;20.158;2024-03-07T09:15:38;101197.19;;;5.63;58.79
55801;BME280;41730;51.960;20.158;2024-03-07T09:18:10;101201.52;;;5.45;59.33
55801;BME280;41730;51.960;20.158;2024-03-07T09:20:43;101202.45;;;5.35;59.92
55801;BME280;41730;51.960;20.158;2024-03-07T09:23:15;101196.89;;;5.28;60.31
55801;BME280;41730;51.960;20.158;2024-03-07T09:25:48;101194.61;;;5.48;59.48
55801;BME280;41730;51.960;20.158;2024-03-07T09:28:20;101192.89;;;5.62;58.46
55801;BME280;41730;51.960;20.158;2024-03-07T09:30:53;101194.52;;;5.57;58.95
55801;BME280;41730;51.960;20.158;2024-03-07T09:33:25;101197.05;;;5.55;58.91
55801;BME280;41730;51.960;20.158;2024-03-07T09:35:58;101201.00;;;5.67;58.46
55801;BME280;41730;51.960;20.158;2024-03-07T09:38:31;101202.23;;;5.67;58.59
55801;BME280;41730;51.960;20.158;2024-03-07T09:41:05;101193.79;;;5.73;58.13
55801;BME280;41730;51.960;20.158;2024-03-07T09:43:41;101196.68;;;5.63;57.58
55801;BME280;41730;51.960;20.158;2024-03-07T09:46:24;101194.50;;;5.61;56.62
55801;BME280;41730;51.960;20.158;2024-03-07T09:48:58;101195.90;;;5.65;56.27
55801;BME280;41730;51.960;20.158;2024-03-07T09:51:31;101199.66;;;5.51;55.85
55801;BME280;41730;51.960;20.158;2024-03-07T09:54:03;101197.41;;;5.47;56.88
55801;BME280;41730;51.960;20.158;2024-03-07T09:56:37;101196.41;;;5.69;57.17
55801;BME280;41730;51.960;20.158;2024-03-07T09:59:13;101196.92;;;5.72;57.03
55801;BME280;41730;51.960;20.158;2024-03-07T10:05:31;101199.25;;;5.94;57.57
55801;BME280;41730;51.960;20.158;2024-03-07T10:08:05;101193.95;;;6.03;57.18
55801;BME280;41730;51.960;20.158;2024-03-07T10:10:39;101197.66;;;6.09;56.11
55801;BME280;41730;51.960;20.158;2024-03-07T10:13:12;101194.90;;;5.94;54.45
55801;BME280;41730;51.960;20.158;2024-03-07T10:15:45;101191.91;;;5.76;54.48
55801;BME280;41730;51.960;20.158;2024-03-07T10:18:18;101195.53;;;5.65;54.89
55801;BME280;41730;51.960;20.158;2024-03-07T10:20:55;101190.80;;;5.62;55.33
55801;BME280;41730;51.960;20.158;2024-03-07T10:23:27;101191.10;;;5.59;56.03
55801;BME280;41730;51.960;20.158;2024-03-07T10:26:01;101187.55;;;5.65;54.96
55801;BME280;41730;51.960;20.158;2024-03-07T10:28:34;101190.30;;;5.65;55.38
55801;BME280;41730;51.960;20.158;2024-03-07T10:31:08;101190.45;;;5.66;55.63
55801;BME280;41730;51.960;20.158;2024-03-07T10:33:42;101190.23;;;5.70;55.79
55801;BME280;41730;51.960;20.158;2024-03-07T10:36:16;101192.14;;;5.86;55.14
55801;BME280;41730;51.960;20.158;2024-03-07T10:38:49;101191.19;;;5.91;55.17
55801;BME280;41730;51.960;20.158;2024-03-07T10:41:28;101194.83;;;5.96;54.92
55801;BME280;41730;51.960;20.158;2024-03-07T10:44:03;101186.41;;;6.01;54.69
55801;BME280;41730;51.960;20.158;2024-03-07T10:46:42;101187.65;;;6.04;53.71
55801;BME280;41730;51.960;20.158;2024-03-07T10:49:17;101188.14;;;6.08;54.13
55801;BME280;41730;51.960;20.158;2024-03-07T10:52:02;101187.12;;;6.04;54.62
55801;BME280;41730;51.960;20.158;2024-03-07T10:54:43;101189.16;;;6.16;54.71
55801;BME280;41730;51.960;20.158;2024-03-07T10:57:29;101187.54;;;6.35;54.23
55801;BME280;41730;51.960;20.158;2024-03-07T11:00:08;101188.35;;;6.39;54.15
55801;BME280;41730;51.960;20.158;2024-03-07T11:03:01;101189.59;;;6.50;54.27
55801;BME280;41730;51.960;20.158;2024-03-07T11:05:38;101192.52;;;6.57;54.44
55801;BME280;41730;51.960;20.158;2024-03-07T11:08:12;101189.02;;;6.54;54.79
55801;BME280;41730;51.960;20.158;2024-03-07T11:10:45;101188.34;;;6.57;54.62
55801;BME280;41730;51.960;20.158;2024-03-07T11:13:19;101186.16;;;6.45;55.06
55801;BME280;41730;51.960;20.158;2024-03-07T11:15:54;101185.52;;;6.44;54.91
55801;BME280;41730;51.960;20.158;2024-03-07T11:18:31;101186.91;;;6.44;54.89
55801;BME280;41730;51.960;20.158;2024-03-07T11:21:03;101189.26;;;6.63;53.58
55801;BME280;41730;51.960;20.158;2024-03-07T11:23:46;101180.45;;;6.62;53.12
55801;BME280;41730;51.960;20.158;2024-03-07T11:26:19;101182.19;;;6.58;53.15
55801;BME280;41730;51.960;20.158;2024-03-07T11:28:51;101174.05;;;6.54;53.24
55801;BME280;41730;51.960;20.158;2024-03-07T11:31:29;101170.72;;;6.61;53.34
55801;BME280;41730;51.960;20.158;2024-03-07T11:34:17;101169.78;;;6.59;53.43
55801;BME280;41730;51.960;20.158;2024-03-07T11:36:50;101168.27;;;6.61;53.16
55801;BME280;41730;51.960;20.158;2024-03-07T11:39:45;101169.70;;;6.71;53.28
55801;BME280;41730;51.960;20.158;2024-03-07T11:42:28;101164.55;;;6.86;52.96
55801;BME280;41730;51.960;20.158;2024-03-07T11:45:01;101162.92;;;6.77;51.67
55801;BME280;41730;51.960;20.158;2024-03-07T11:47:39;101160.60;;;6.85;51.75
55801;BME280;41730;51.960;20.158;2024-03-07T11:50:12;101164.95;;;6.85;51.76
55801;BME280;41730;51.960;20.158;2024-03-07T11:52:45;101155.27;;;6.83;51.97
55801;BME280;41730;51.960;20.158;2024-03-07T11:55:20;101157.64;;;6.82;52.11
55801;BME280;41730;51.960;20.158;2024-03-07T11:57:53;101154.08;;;6.59;52.57
55801;BME280;41730;51.960;20.158;2024-03-07T12:00:26;101153.60;;;6.51;52.58
55801;BME280;41730;51.960;20.158;2024-03-07T12:03:02;101149.85;;;6.50;52.76
55801;BME280;41730;51.960;20.158;2024-03-07T12:05:37;101147.63;;;6.63;52.12
55801;BME280;41730;51.960;20.158;2024-03-07T12:08:10;101141.06;;;6.78;52.20
55801;BME280;41730;51.960;20.158;2024-03-07T12:10:44;101145.38;;;6.86;52.20
55801;BME280;41730;51.960;20.158;2024-03-07T12:13:18;101141.66;;;6.74;51.75
55801;BME280;41730;51.960;20.158;2024-03-07T12:15:51;101139.27;;;6.80;52.14
55801;BME280;41730;51.960;20.158;2024-03-07T12:18:27;101137.40;;;7.02;51.40
55801;BME280;41730;51.960;20.158;2024-03-07T12:21:06;101135.33;;;7.02;50.78
55801;BME280;41730;51.960;20.158;2024-03-07T12:23:46;101134.73;;;6.90;50.69
55801;BME280;41730;51.960;20.158;2024-03-07T12:26:25;101131.98;;;6.95;50.97
55801;BME280;41730;51.960;20.158;2024-03-07T12:29:10;101125.83;;;7.03;50.78
55801;BME280;41730;51.960;20.158;2024-03-07T12:31:43;101129.02;;;7.05;50.19
55801;BME280;41730;51.960;20.158;2024-03-07T12:34:16;101130.42;;;7.12;49.96
55801;BME280;41730;51.960;20.158;2024-03-07T12:36:57;101124.34;;;7.12;49.26
55801;BME280;41730;51.960;20.158;2024-03-07T12:39:44;101126.68;;;7.03;49.06
55801;BME280;41730;51.960;20.158;2024-03-07T12:42:20;101122.41;;;6.98;49.98
55801;BME280;41730;51.960;20.158;2024-03-07T12:44:55;101124.16;;;6.98;50.88
55801;BME280;41730;51.960;20.158;2024-03-07T12:47:32;101120.91;;;6.94;51.10
55801;BME280;41730;51.960;20.158;2024-03-07T12:50:06;101118.66;;;7.03;51.25
55801;BME280;41730;51.960;20.158;2024-03-07T12:52:38;101119.89;;;7.17;49.86
55801;BME280;41730;51.960;20.158;2024-03-07T12:55:15;101121.35;;;7.12;49.78
55801;BME280;41730;51.960;20.158;2024-03-07T12:57:54;101121.61;;;7.03;50.46
55801;BME280;41730;51.960;20.158;2024-03-07T13:00:28;101116.04;;;7.13;50.99
55801;BME280;41730;51.960;20.158;2024-03-07T13:03:02;101112.50;;;7.21;50.29
55801;BME280;41730;51.960;20.158;2024-03-07T13:05:35;101112.41;;;7.16;49.55
55801;BME280;41730;51.960;20.158;2024-03-07T13:08:13;101117.34;;;7.21;49.08
55801;BME280;41730;51.960;20.158;2024-03-07T13:10:43;101112.77;;;7.25;49.77
55801;BME280;41730;51.960;20.158;2024-03-07T13:13:23;101107.91;;;7.38;48.80
55801;BME280;41730;51.960;20.158;2024-03-07T13:15:55;101109.45;;;7.35;48.10
55801;BME280;41730;51.960;20.158;2024-03-07T13:18:27;101105.48;;;7.44;48.11
55801;BME280;41730;51.960;20.158;2024-03-07T13:21:06;101106.80;;;7.36;48.56
55801;BME280;41730;51.960;20.158;2024-03-07T13:23:43;101109.45;;;7.38;48.81
55801;BME280;41730;51.960;20.158;2024-03-07T13:26:20;101106.30;;;7.41;48.36
55801;BME280;41730;51.960;20.158;2024-03-07T13:28:55;101107.73;;;7.44;48.02